createdAt,value
2018-10-01T00:01:19.916Z,7.37
2018-10-01T00:03:55.821Z,6.03
2018-10-01T00:06:31.831Z,11.07
2018-10-01T00:09:08.899Z,6.73
2018-10-01T00:11:44.784Z,8.43
2018-10-01T00:14:20.743Z,9.30
2018-10-01T00:16:56.721Z,5.67
2018-10-01T00:19:37.711Z,5.83
2018-10-01T00:22:18.884Z,6.83
2018-10-01T00:27:58.499Z,9.30
2018-10-01T00:30:34.439Z,5.13
2018-10-01T00:33:10.403Z,6.50
2018-10-01T00:35:46.168Z,5.83
2018-10-01T00:38:22.185Z,8.77
2018-10-01T00:40:58.133Z,7.00
2018-10-01T00:43:34.177Z,5.67
2018-10-01T00:46:09.938Z,6.47
2018-10-01T00:48:45.834Z,6.47
2018-10-01T00:51:21.919Z,4.87
2018-10-01T00:53:57.787Z,6.27
2018-10-01T00:56:33.621Z,7.17
2018-10-01T00:59:09.538Z,6.40
2018-10-01T01:01:45.499Z,8.33
2018-10-01T01:04:21.387Z,9.00
2018-10-01T01:06:57.282Z,9.23
2018-10-01T01:09:33.118Z,7.57
2018-10-01T01:12:09.231Z,6.70
2018-10-01T01:14:45.262Z,7.43
2018-10-01T01:17:21.222Z,8.30
2018-10-01T01:19:57.159Z,7.47
2018-10-01T01:22:33.102Z,6.60
2018-10-01T01:25:08.954Z,7.93
2018-10-01T01:27:44.949Z,7.03
2018-10-01T01:30:20.636Z,6.20
2018-10-01T01:32:56.504Z,7.77
2018-10-01T01:35:32.304Z,6.93
2018-10-01T01:38:08.331Z,7.53
2018-10-01T01:40:44.094Z,8.13
2018-10-01T01:43:19.879Z,5.30
2018-10-01T01:45:55.768Z,9.87
2018-10-01T01:48:31.840Z,6.17
2018-10-01T01:51:07.912Z,7.37
2018-10-01T01:53:43.921Z,10.63
2018-10-01T01:56:19.883Z,7.20
2018-10-01T01:58:55.767Z,9.17
2018-10-01T02:01:31.588Z,6.97
2018-10-01T02:04:07.476Z,11.83
2018-10-01T02:06:43.486Z,8.33
2018-10-01T02:09:19.457Z,6.00
2018-10-01T02:11:55.479Z,6.43
2018-10-01T02:14:31.518Z,8.50
2018-10-01T02:17:07.343Z,5.90
2018-10-01T02:19:43.184Z,9.83
2018-10-01T02:22:25.570Z,6.80
2018-10-01T02:25:01.398Z,9.23
2018-10-01T02:27:37.387Z,8.27
2018-10-01T02:30:13.474Z,9.40
2018-10-01T02:32:49.349Z,8.93
2018-10-01T02:35:25.212Z,6.87
2018-10-01T02:38:01.121Z,7.57
2018-10-01T02:40:36.896Z,7.53
2018-10-01T02:43:12.776Z,7.10
2018-10-01T02:45:48.811Z,7.70
2018-10-01T02:48:24.556Z,7.10
2018-10-01T02:51:00.715Z,9.97
2018-10-01T02:53:41.940Z,6.93
2018-10-01T02:56:17.982Z,7.63
2018-10-01T02:58:53.945Z,6.10
2018-10-01T03:01:29.860Z,9.10
2018-10-01T03:04:05.768Z,9.07
2018-10-01T03:06:41.713Z,6.43
2018-10-01T03:09:17.768Z,8.63
2018-10-01T03:11:53.510Z,9.13
2018-10-01T03:14:29.491Z,8.10
2018-10-01T03:17:05.464Z,9.97
2018-10-01T03:19:41.188Z,9.60
2018-10-01T03:22:17.088Z,6.93
2018-10-01T03:24:52.931Z,8.10
2018-10-01T03:27:28.904Z,8.33
2018-10-01T03:30:05.075Z,7.43
2018-10-01T03:32:40.995Z,6.60
2018-10-01T03:35:16.921Z,6.40
2018-10-01T03:37:52.896Z,9.13
2018-10-01T03:40:28.816Z,6.50
2018-10-01T03:43:04.725Z,7.17
2018-10-01T03:45:40.684Z,6.73
2018-10-01T03:48:16.731Z,9.20
2018-10-01T03:50:52.536Z,6.80
2018-10-01T03:53:28.438Z,9.53
2018-10-01T03:56:04.391Z,6.20
2018-10-01T03:58:40.407Z,7.60
2018-10-01T04:01:16.466Z,6.73
2018-10-01T04:03:52.476Z,8.23
2018-10-01T04:06:28.258Z,7.63
2018-10-01T04:09:04.636Z,8.43
2018-10-01T04:11:40.563Z,8.33
2018-10-01T04:14:16.415Z,9.77
2018-10-01T04:16:52.426Z,9.07
2018-10-01T04:19:28.467Z,8.30
2018-10-01T04:22:04.452Z,6.30
2018-10-01T04:24:40.271Z,6.90
2018-10-01T04:27:16.379Z,6.37
2018-10-01T04:29:52.251Z,5.07
2018-10-01T04:32:28.176Z,7.93
2018-10-01T04:35:34.939Z,5.60
2018-10-01T04:38:10.868Z,7.27
2018-10-01T04:40:46.679Z,6.50
2018-10-01T04:43:22.644Z,6.40
2018-10-01T04:45:58.372Z,7.03
2018-10-01T04:48:34.229Z,8.70
2018-10-01T04:51:10.259Z,7.80
2018-10-01T04:53:46.106Z,8.03
2018-10-01T04:56:22.103Z,10.43
2018-10-01T04:58:57.959Z,6.70
2018-10-01T05:01:33.811Z,10.97
2018-10-01T05:04:09.699Z,5.47
2018-10-01T05:06:45.491Z,7.80
2018-10-01T05:09:21.451Z,8.77
2018-10-01T05:11:57.387Z,7.20
2018-10-01T05:14:33.296Z,8.10
2018-10-01T05:17:09.107Z,7.43
2018-10-01T05:19:45.029Z,7.73
2018-10-01T05:22:20.929Z,7.90
2018-10-01T05:24:57.200Z,10.03
2018-10-01T05:27:33.205Z,7.33
2018-10-01T05:30:09.315Z,8.53
2018-10-01T05:32:45.268Z,7.47
2018-10-01T05:35:21.267Z,9.80
2018-10-01T05:37:57.333Z,7.17
2018-10-01T05:40:33.308Z,7.50
2018-10-01T05:43:09.269Z,8.70
2018-10-01T05:45:45.089Z,7.40
2018-10-01T05:48:21.175Z,5.23
2018-10-01T05:50:57.194Z,6.40
2018-10-01T05:53:33.194Z,6.53
2018-10-01T05:56:09.236Z,5.57
2018-10-01T05:58:45.041Z,6.53
2018-10-01T06:01:21.070Z,4.80
2018-10-01T06:03:57.128Z,7.07
2018-10-01T06:06:32.952Z,5.63
2018-10-01T06:09:11.070Z,6.43
2018-10-01T06:11:46.876Z,6.60
2018-10-01T06:14:22.835Z,7.80
2018-10-01T06:16:58.628Z,6.10
2018-10-01T06:19:34.561Z,9.17
2018-10-01T06:22:10.494Z,8.17
2018-10-01T06:24:46.432Z,7.23
2018-10-01T06:27:22.472Z,7.70
2018-10-01T06:29:58.478Z,7.70
2018-10-01T06:32:34.465Z,5.70
2018-10-01T06:35:10.331Z,4.93
2018-10-01T06:37:46.328Z,7.73
2018-10-01T06:40:22.289Z,4.43
2018-10-01T06:42:58.155Z,5.80
2018-10-01T06:45:34.178Z,7.03
2018-10-01T06:48:10.036Z,8.83
2018-10-01T06:50:46.048Z,7.83
2018-10-01T06:53:22.195Z,4.87
2018-10-01T06:55:58.146Z,6.10
2018-10-01T06:58:34.095Z,5.37
2018-10-01T07:01:10.171Z,7.77
2018-10-01T07:03:46.003Z,6.37
2018-10-01T07:06:21.996Z,5.20
2018-10-01T07:08:57.845Z,4.17
2018-10-01T07:11:33.674Z,7.47
2018-10-01T07:14:09.660Z,7.07
2018-10-01T07:16:45.530Z,6.30
2018-10-01T07:19:21.523Z,4.20
2018-10-01T07:21:57.383Z,3.73
2018-10-01T07:24:33.202Z,4.47
2018-10-01T07:27:09.119Z,5.27
2018-10-01T07:29:45.031Z,5.63
2018-10-01T07:32:21.001Z,7.80
2018-10-01T07:34:56.888Z,5.00
2018-10-01T07:37:32.882Z,6.57
2018-10-01T07:40:08.832Z,4.50
2018-10-01T07:42:44.863Z,4.13
2018-10-01T07:45:21.043Z,3.73
2018-10-01T07:47:56.966Z,3.93
2018-10-01T07:50:32.900Z,4.80
2018-10-01T07:53:08.900Z,5.87
2018-10-01T07:55:44.858Z,2.70
2018-10-01T07:58:20.939Z,4.37
2018-10-01T08:00:56.852Z,5.37
2018-10-01T08:03:32.851Z,3.43
2018-10-01T08:06:08.856Z,5.23
2018-10-01T08:08:44.869Z,4.27
2018-10-01T08:11:21.848Z,3.50
2018-10-01T08:13:57.984Z,3.80
2018-10-01T08:16:33.862Z,4.33
2018-10-01T08:19:09.677Z,4.10
2018-10-01T08:21:45.418Z,3.83
2018-10-01T08:24:21.425Z,4.70
2018-10-01T08:26:57.212Z,4.90
2018-10-01T08:29:33.239Z,4.83
2018-10-01T08:32:09.117Z,4.37
2018-10-01T08:34:45.009Z,3.57
2018-10-01T08:37:20.893Z,4.60
2018-10-01T08:39:56.832Z,3.80
2018-10-01T08:42:32.675Z,3.13
2018-10-01T08:45:08.608Z,5.13
2018-10-01T08:47:44.613Z,4.93
2018-10-01T08:51:23.312Z,2.43
2018-10-01T08:54:05.159Z,5.00
2018-10-01T08:56:41.515Z,3.23
2018-10-01T08:59:17.534Z,6.37
2018-10-01T09:01:53.528Z,4.27
2018-10-01T09:04:29.500Z,1.60
2018-10-01T09:07:05.326Z,4.27
2018-10-01T09:09:41.294Z,3.23
2018-10-01T09:12:17.158Z,2.83
2018-10-01T09:14:53.088Z,2.97
2018-10-01T09:17:29.036Z,2.70
2018-10-01T09:20:05.721Z,3.33
2018-10-01T09:22:41.607Z,4.33
2018-10-01T09:25:17.653Z,3.70
2018-10-01T09:27:53.615Z,3.23
2018-10-01T09:30:29.479Z,5.43
2018-10-01T09:33:05.352Z,2.70
2018-10-01T09:35:41.319Z,1.60
2018-10-01T09:38:17.253Z,1.63
2018-10-01T09:40:53.203Z,4.07
2018-10-01T09:43:29.133Z,5.00
2018-10-01T09:46:05.025Z,4.53
2018-10-01T09:48:41.031Z,3.20
2018-10-01T09:51:17.051Z,3.47
2018-10-01T09:53:53.087Z,1.43
2018-10-01T09:56:28.964Z,5.00
2018-10-01T09:59:04.838Z,2.07
2018-10-01T10:01:40.734Z,3.37
2018-10-01T10:04:16.470Z,3.90
2018-10-01T10:06:52.492Z,2.87
2018-10-01T10:09:28.514Z,4.03
2018-10-01T10:12:04.504Z,4.73
2018-10-01T10:14:40.619Z,4.17
2018-10-01T10:17:16.511Z,2.90
2018-10-01T10:19:52.476Z,2.77
2018-10-01T10:22:28.560Z,3.47
2018-10-01T10:25:04.581Z,2.43
2018-10-01T10:27:40.510Z,2.17
2018-10-01T10:30:16.685Z,3.17
2018-10-01T10:32:52.551Z,2.50
2018-10-01T10:35:28.453Z,4.27
2018-10-01T10:38:04.340Z,1.67
2018-10-01T10:40:40.274Z,2.37
2018-10-01T10:43:16.159Z,1.37
2018-10-01T10:45:52.081Z,2.63
2018-10-01T10:48:27.871Z,4.50
2018-10-01T10:51:03.781Z,5.30
2018-10-01T10:53:39.702Z,2.40
2018-10-01T10:56:15.685Z,3.23
2018-10-01T10:58:51.585Z,2.77
2018-10-01T11:01:27.352Z,4.00
2018-10-01T11:04:03.408Z,3.73
2018-10-01T11:06:39.298Z,2.40
2018-10-01T11:09:15.335Z,1.80
2018-10-01T11:11:51.308Z,3.13
2018-10-01T11:14:27.449Z,1.77
2018-10-01T11:17:03.182Z,3.90
2018-10-01T11:19:39.162Z,3.50
2018-10-01T11:22:15.155Z,4.23
2018-10-01T11:24:51.200Z,3.43
2018-10-01T11:27:27.111Z,2.47
2018-10-01T11:30:02.982Z,1.50
2018-10-01T11:32:38.800Z,2.50
2018-10-01T11:35:15.017Z,3.60
2018-10-01T11:37:50.791Z,8.03
2018-10-01T11:40:26.837Z,6.43
2018-10-01T11:43:02.657Z,2.53
2018-10-01T11:45:38.741Z,20.63
2018-10-01T11:48:14.533Z,5.63
2018-10-01T11:50:50.390Z,5.10
2018-10-01T11:53:26.314Z,5.93
2018-10-01T11:56:02.144Z,4.40
2018-10-01T11:58:37.949Z,2.63
2018-10-01T12:01:13.985Z,5.20
2018-10-01T12:03:50.121Z,3.23
2018-10-01T12:06:26.007Z,2.27
2018-10-01T12:09:02.138Z,1.83
2018-10-01T12:11:38.078Z,1.93
2018-10-01T12:14:14.080Z,2.03
2018-10-01T12:16:49.935Z,2.60
2018-10-01T12:19:25.959Z,1.93
2018-10-01T12:22:02.086Z,1.53
2018-10-01T12:24:38.009Z,2.50
2018-10-01T12:27:14.252Z,3.30
2018-10-01T12:29:50.028Z,2.30
2018-10-01T12:32:25.991Z,1.80
2018-10-01T12:35:01.991Z,3.33
2018-10-01T12:37:37.781Z,3.77
2018-10-01T12:40:13.686Z,3.13
2018-10-01T12:42:49.808Z,2.97
2018-10-01T12:45:25.714Z,2.90
2018-10-01T12:48:01.602Z,3.87
2018-10-01T12:50:37.721Z,3.67
2018-10-01T12:53:13.573Z,3.13
2018-10-01T12:55:49.366Z,6.00
2018-10-01T12:58:25.291Z,4.83
2018-10-01T13:01:01.420Z,3.23
2018-10-01T13:03:37.339Z,3.90
2018-10-01T13:06:13.277Z,4.47
2018-10-01T13:08:49.134Z,5.10
2018-10-01T13:11:25.144Z,3.77
2018-10-01T13:13:55.893Z,4.33
2018-10-01T13:16:26.637Z,3.77
2018-10-01T13:18:57.356Z,4.67
2018-10-01T13:21:28.044Z,4.23
2018-10-01T13:23:58.913Z,2.70
2018-10-01T13:26:29.518Z,5.83
2018-10-01T13:29:00.239Z,4.63
2018-10-01T13:31:30.923Z,5.13
2018-10-01T13:34:01.568Z,3.53
2018-10-01T13:36:32.349Z,4.90
2018-10-01T13:39:03.019Z,3.60
2018-10-01T13:41:39.811Z,7.40
2018-10-01T13:44:16.605Z,5.37
2018-10-01T13:46:52.731Z,6.33
2018-10-01T13:49:28.683Z,6.43
2018-10-01T13:54:39.568Z,7.47
2018-10-01T13:57:10.279Z,5.03
2018-10-01T13:59:41.104Z,8.53
2018-10-01T14:02:11.776Z,8.63
2018-10-01T14:04:42.549Z,7.67
2018-10-01T14:07:13.346Z,9.47
2018-10-01T14:09:43.640Z,6.50
2018-10-01T14:12:14.429Z,5.07
2018-10-01T14:14:45.140Z,10.70
2018-10-01T14:17:15.875Z,8.43
2018-10-01T14:19:46.620Z,7.20
2018-10-01T14:22:17.377Z,4.00
2018-10-01T14:24:48.081Z,3.93
2018-10-01T14:27:18.784Z,4.73
2018-10-01T14:29:49.422Z,3.37
2018-10-01T14:32:20.319Z,4.27
2018-10-01T14:34:51.161Z,6.37
2018-10-01T14:37:21.784Z,3.10
2018-10-01T14:39:52.571Z,4.80
2018-10-01T14:42:23.264Z,3.00
2018-10-01T14:44:53.978Z,4.83
2018-10-01T14:47:24.596Z,4.43
2018-10-01T14:49:55.250Z,3.00
2018-10-01T14:52:25.987Z,3.03
2018-10-01T14:54:56.796Z,3.23
2018-10-01T14:57:27.397Z,4.57
2018-10-01T14:59:58.237Z,4.40
2018-10-01T15:02:29.037Z,3.67
2018-10-01T15:05:00.173Z,2.97
2018-10-01T15:07:30.964Z,2.50
2018-10-01T15:10:01.630Z,5.43
2018-10-01T15:12:32.283Z,3.47
2018-10-01T15:15:02.966Z,1.17
2018-10-01T15:17:33.812Z,2.00
2018-10-01T15:20:04.540Z,1.00
2018-10-01T15:22:35.162Z,0.83
2018-10-01T15:25:06.020Z,1.73
2018-10-01T15:27:36.775Z,0.90
2018-10-01T15:30:07.898Z,1.43
2018-10-01T15:32:38.727Z,1.40
2018-10-01T15:35:09.497Z,3.00
2018-10-01T15:37:40.415Z,2.93
2018-10-01T15:40:11.065Z,1.60
2018-10-01T15:42:41.692Z,1.50
2018-10-01T15:45:12.350Z,1.30
2018-10-01T15:47:43.065Z,2.43
2018-10-01T15:50:13.735Z,2.87
2018-10-01T15:52:44.491Z,5.00
2018-10-01T15:55:15.197Z,2.40
2018-10-01T15:57:45.869Z,4.13
2018-10-01T16:00:16.668Z,3.10
2018-10-01T16:02:47.404Z,3.70
2018-10-01T16:05:19.033Z,3.17
2018-10-01T16:07:49.727Z,3.97
2018-10-01T16:10:20.432Z,4.07
2018-10-01T16:12:51.276Z,4.53
2018-10-01T16:15:22.154Z,5.40
2018-10-01T16:17:52.805Z,5.43
2018-10-01T16:20:23.691Z,5.37
2018-10-01T16:22:54.308Z,6.30
2018-10-01T16:25:25.077Z,3.27
2018-10-01T16:27:55.715Z,3.93
2018-10-01T16:30:26.419Z,5.60
2018-10-01T16:32:57.122Z,3.07
2018-10-01T16:35:27.791Z,4.10
2018-10-01T16:37:58.453Z,6.10
2018-10-01T16:40:29.188Z,3.17
2018-10-01T16:42:59.973Z,2.83
2018-10-01T16:45:30.658Z,2.13
2018-10-01T16:48:01.299Z,3.57
2018-10-01T16:50:31.936Z,5.63
2018-10-01T16:53:02.633Z,5.10
2018-10-01T16:55:33.316Z,2.93
2018-10-01T16:58:04.054Z,5.17
2018-10-01T17:00:34.762Z,3.97
2018-10-01T17:03:05.538Z,4.23
2018-10-01T17:05:36.273Z,3.50
2018-10-01T17:08:07.257Z,6.97
2018-10-01T17:10:37.989Z,3.60
2018-10-01T17:13:08.762Z,3.97
2018-10-01T17:15:39.449Z,6.27
2018-10-01T17:18:10.164Z,5.40
2018-10-01T17:20:40.887Z,2.37
2018-10-01T17:23:11.664Z,2.57
2018-10-01T17:25:42.432Z,2.73
2018-10-01T17:28:13.207Z,2.07
2018-10-01T17:30:44.003Z,1.80
2018-10-01T17:33:14.813Z,2.10
2018-10-01T17:35:45.458Z,2.50
2018-10-01T17:38:16.279Z,2.47
2018-10-01T17:40:47.015Z,3.87
2018-10-01T17:43:17.777Z,4.37
2018-10-01T17:45:48.460Z,3.10
2018-10-01T17:48:19.204Z,3.53
2018-10-01T17:50:50.506Z,3.50
2018-10-01T17:53:21.274Z,3.77
2018-10-01T17:55:51.962Z,4.17
2018-10-01T17:58:22.643Z,3.50
2018-10-01T18:00:53.355Z,3.00
2018-10-01T18:03:23.967Z,3.67
2018-10-01T18:05:54.670Z,2.50
2018-10-01T18:08:25.319Z,3.53
2018-10-01T18:10:55.988Z,3.60
2018-10-01T18:13:26.683Z,3.93
2018-10-01T18:15:57.351Z,3.80
2018-10-01T18:18:27.984Z,6.23
2018-10-01T18:20:58.676Z,4.60
2018-10-01T18:23:29.362Z,4.93
2018-10-01T18:26:00.389Z,3.77
2018-10-01T18:28:31.240Z,6.27
2018-10-01T18:31:01.933Z,4.40
2018-10-01T18:33:32.555Z,4.57
2018-10-01T18:36:03.266Z,3.00
2018-10-01T18:38:33.955Z,3.80
2018-10-01T18:41:04.671Z,4.07
2018-10-01T18:43:35.522Z,4.90
2018-10-01T18:46:06.185Z,6.30
2018-10-01T18:48:36.927Z,4.60
2018-10-01T18:51:07.681Z,5.20
2018-10-01T18:53:38.390Z,5.53
2018-10-01T18:56:09.961Z,7.07
2018-10-01T18:58:41.632Z,6.10
2018-10-01T19:01:12.315Z,3.60
2018-10-01T19:03:43.880Z,5.83
2018-10-01T19:06:14.595Z,6.80
2018-10-01T19:08:45.192Z,5.50
2018-10-01T19:11:16.119Z,5.93
2018-10-01T19:13:47.688Z,6.87
2018-10-01T19:16:21.220Z,6.77
2018-10-01T19:18:52.098Z,5.23
2018-10-01T19:21:22.834Z,6.33
2018-10-01T19:23:53.487Z,4.73
2018-10-01T19:26:24.146Z,5.23
2018-10-01T19:28:54.895Z,7.43
2018-10-01T19:31:25.650Z,4.83
2018-10-01T19:33:56.292Z,5.33
2018-10-01T19:36:26.949Z,9.10
2018-10-01T19:38:57.747Z,6.50
2018-10-01T19:41:28.455Z,6.33
2018-10-01T19:43:59.084Z,7.33
2018-10-01T19:46:29.746Z,9.10
2018-10-01T19:49:00.413Z,8.10
2018-10-01T19:51:31.084Z,7.03
2018-10-01T19:54:01.733Z,9.10
2018-10-01T19:56:32.431Z,7.20
2018-10-01T19:59:03.290Z,7.93
2018-10-01T20:01:33.947Z,6.53
2018-10-01T20:04:04.707Z,6.80
2018-10-01T20:06:35.374Z,5.07
2018-10-01T20:09:10.447Z,7.37
2018-10-01T20:11:41.592Z,4.97
2018-10-01T20:14:12.269Z,6.03
2018-10-01T20:16:42.966Z,6.33
2018-10-01T20:19:13.723Z,7.40
2018-10-01T20:21:44.526Z,7.10
2018-10-01T20:24:15.325Z,7.17
2018-10-01T20:26:46.137Z,6.87
2018-10-01T20:29:16.971Z,9.17
2018-10-01T20:31:47.729Z,7.20
2018-10-01T20:34:18.362Z,8.20
2018-10-01T20:36:49.080Z,10.20
2018-10-01T20:39:19.859Z,6.23
2018-10-01T20:41:50.741Z,7.97
2018-10-01T20:44:21.481Z,5.93
2018-10-01T20:46:52.189Z,6.70
2018-10-01T20:49:22.779Z,6.20
2018-10-01T20:51:53.494Z,8.40
2018-10-01T20:54:24.205Z,6.97
2018-10-01T20:56:54.923Z,6.97
2018-10-01T20:59:25.678Z,5.33
2018-10-01T21:01:56.320Z,6.43
2018-10-01T21:04:27.166Z,6.50
2018-10-01T21:06:57.936Z,9.47
2018-10-01T21:09:28.632Z,7.07
2018-10-01T21:11:59.352Z,6.97
2018-10-01T21:14:30.702Z,6.90
2018-10-01T21:17:01.418Z,7.60
2018-10-01T21:19:32.032Z,7.33
2018-10-01T21:22:02.734Z,6.70
2018-10-01T21:24:33.400Z,12.77
2018-10-01T21:27:04.079Z,5.60
2018-10-01T21:29:34.766Z,5.93
2018-10-01T21:32:05.562Z,6.73
2018-10-01T21:34:36.261Z,6.60
2018-10-01T21:37:06.936Z,6.70
2018-10-01T21:40:10.835Z,5.00
2018-10-01T21:42:41.601Z,6.80
2018-10-01T21:45:13.520Z,4.80
2018-10-01T21:47:44.181Z,7.10
2018-10-01T21:50:14.820Z,7.00
2018-10-01T21:52:45.509Z,8.30
2018-10-01T21:55:16.181Z,5.53
2018-10-01T21:57:46.948Z,5.70
2018-10-01T22:00:17.687Z,6.13
2018-10-01T22:02:48.381Z,7.77
2018-10-01T22:05:19.039Z,4.70
2018-10-01T22:07:49.687Z,8.53
2018-10-01T22:10:20.315Z,10.33
2018-10-01T22:12:51.025Z,7.40
2018-10-01T22:15:21.686Z,11.97
2018-10-01T22:17:52.348Z,7.13
2018-10-01T22:20:23.039Z,5.50
2018-10-01T22:22:53.723Z,5.47
2018-10-01T22:25:24.445Z,9.03
2018-10-01T22:27:55.150Z,8.20
2018-10-01T22:30:25.785Z,7.63
2018-10-01T22:32:56.450Z,10.53
2018-10-01T22:35:27.128Z,9.13
2018-10-01T22:37:57.933Z,9.70
2018-10-01T22:40:28.711Z,10.23
2018-10-01T22:42:59.362Z,7.30
2018-10-01T22:45:30.098Z,10.33
2018-10-01T22:48:00.785Z,7.70
2018-10-01T22:50:31.540Z,12.17
2018-10-01T22:53:02.202Z,6.90
2018-10-01T22:55:32.908Z,9.10
2018-10-01T22:58:03.582Z,11.83
2018-10-01T23:00:34.403Z,7.43
2018-10-01T23:03:05.090Z,6.57
2018-10-01T23:05:35.779Z,10.67
2018-10-01T23:08:06.632Z,9.77
2018-10-01T23:10:37.415Z,9.93
2018-10-01T23:13:08.088Z,9.57
2018-10-01T23:15:38.781Z,12.43
2018-10-01T23:18:09.490Z,7.70
2018-10-01T23:20:40.135Z,6.63
2018-10-01T23:23:10.938Z,11.17
2018-10-01T23:25:41.584Z,10.73
2018-10-01T23:28:12.293Z,12.07
2018-10-01T23:30:42.952Z,7.57
2018-10-01T23:33:13.675Z,7.83
2018-10-01T23:35:44.359Z,14.03
2018-10-01T23:38:15.332Z,12.10
2018-10-01T23:40:45.972Z,7.37
2018-10-01T23:43:16.735Z,7.23
2018-10-01T23:45:47.427Z,8.00
2018-10-01T23:48:18.149Z,10.50
2018-10-01T23:50:48.815Z,5.33
2018-10-01T23:53:19.515Z,8.60
2018-10-01T23:55:50.137Z,8.90
2018-10-01T23:58:20.816Z,8.53
